Oliver Springs, Tennessee
Current Conditions -  °F | °C
As of 12:53 PM on Thursday 18 Dec 2014 (Local Time) from KOQT Reporting Station
Broken Clouds Broken Clouds  
Wind Chill:   Ceiling: 7000
Heat Index:   Visibility: 10mi
Dew Point: -2°   Wind: 0mph
Humidity: 56%   Direction: NA
Pressure: 30.18"   Gusts: NA
Location:  36.04°N, 84.34°W
Report Text: KOQT 181753Z AUTO 00000KT 10SM BKN070 06/M02 A3018 RMK AO2 SLP230 60000 T00611022 10067 20017 58016
Loading
Personal Weather Stations






























Interactive Weather Map New forecast layout! Learn more

10-Day Weather Forecast

Advertisements
Track Severe Weather on mobile